sensor_id;sensor_type;location;lat;lon;timestamp;temperature;humidity
11091;DHT22;5599;52.210;21.046;2024-01-30T00:00:04;1.60;99.90
11091;DHT22;5599;52.210;21.046;2024-01-30T00:02:33;1.60;99.90
11091;DHT22;5599;52.210;21.046;2024-01-30T00:05:03;1.60;99.90
11091;DHT22;5599;52.210;21.046;2024-01-30T00:07:32;1.60;99.90
11091;DHT22;5599;52.210;21.046;2024-01-30T00:10:01;1.70;99.90
11091;DHT22;5599;52.210;21.046;2024-01-30T00:12:30;1.60;99.90
11091;DHT22;5599;52.210;21.046;2024-01-30T00:15:00;1.60;99.90
11091;DHT22;5599;52.210;21.046;2024-01-30T00:17:31;1.60;99.90
11091;DHT22;5599;52.210;21.046;2024-01-30T00:20:00;1.60;99.90
11091;DHT22;5599;52.210;21.046;2024-01-30T00:22:32;1.60;99.90
11091;DHT22;5599;52.210;21.046;2024-01-30T00:25:01;1.60;99.90
11091;DHT22;5599;52.210;21.046;2024-01-30T00:27:30;1.50;99.90
11091;DHT22;5599;52.210;21.046;2024-01-30T00:30:00;1.50;99.90
11091;DHT22;5599;52.210;21.046;2024-01-30T00:32:30;1.50;99.90
11091;DHT22;5599;52.210;21.046;2024-01-30T00:34:59;1.50;99.90
11091;DHT22;5599;52.210;21.046;2024-01-30T00:37:28;1.50;99.90
11091;DHT22;5599;52.210;21.046;2024-01-30T00:39:56;1.50;99.90
11091;DHT22;5599;52.210;21.046;2024-01-30T00:42:26;1.50;99.90
11091;DHT22;5599;52.210;21.046;2024-01-30T00:44:54;1.50;99.90
11091;DHT22;5599;52.210;21.046;2024-01-30T00:47:25;1.50;99.90
11091;DHT22;5599;52.210;21.046;2024-01-30T00:49:53;1.50;99.90
11091;DHT22;5599;52.210;21.046;2024-01-30T00:52:22;1.50;99.90
11091;DHT22;5599;52.210;21.046;2024-01-30T00:54:51;1.60;99.90
11091;DHT22;5599;52.210;21.046;2024-01-30T00:57:20;1.60;99.90
11091;DHT22;5599;52.210;21.046;2024-01-30T00:59:49;1.60;99.90
11091;DHT22;5599;52.210;21.046;2024-01-30T01:02:17;1.60;99.90
11091;DHT22;5599;52.210;21.046;2024-01-30T01:04:48;1.60;99.90
11091;DHT22;5599;52.210;21.046;2024-01-30T01:07:17;1.50;83.90
11091;DHT22;5599;52.210;21.046;2024-01-30T01:09:46;1.50;99.90
11091;DHT22;5599;52.210;21.046;2024-01-30T01:12:15;1.50;99.90
11091;DHT22;5599;52.210;21.046;2024-01-30T01:14:44;1.50;99.90
11091;DHT22;5599;52.210;21.046;2024-01-30T01:17:12;1.50;99.90
11091;DHT22;5599;52.210;21.046;2024-01-30T01:19:41;1.50;99.90
11091;DHT22;5599;52.210;21.046;2024-01-30T01:22:12;1.50;99.90
11091;DHT22;5599;52.210;21.046;2024-01-30T01:24:41;1.50;99.90
11091;DHT22;5599;52.210;21.046;2024-01-30T01:27:09;1.50;99.90
11091;DHT22;5599;52.210;21.046;2024-01-30T01:29:38;1.40;99.90
11091;DHT22;5599;52.210;21.046;2024-01-30T01:32:07;1.40;99.90
11091;DHT22;5599;52.210;21.046;2024-01-30T01:34:36;1.40;99.90
11091;DHT22;5599;52.210;21.046;2024-01-30T01:37:05;1.40;99.90
11091;DHT22;5599;52.210;21.046;2024-01-30T01:39:36;1.40;99.90
11091;DHT22;5599;52.210;21.046;2024-01-30T01:42:05;1.40;99.90
11091;DHT22;5599;52.210;21.046;2024-01-30T01:44:34;1.40;99.90
11091;DHT22;5599;52.210;21.046;2024-01-30T01:47:03;1.50;99.90
11091;DHT22;5599;52.210;21.046;2024-01-30T01:49:32;1.40;99.90
11091;DHT22;5599;52.210;21.046;2024-01-30T01:52:01;1.40;99.90
11091;DHT22;5599;52.210;21.046;2024-01-30T01:54:30;1.50;99.90
11091;DHT22;5599;52.210;21.046;2024-01-30T01:57:01;1.50;99.90
11091;DHT22;5599;52.210;21.046;2024-01-30T01:59:30;1.50;99.90
11091;DHT22;5599;52.210;21.046;2024-01-30T02:02:00;1.50;96.10
11091;DHT22;5599;52.210;21.046;2024-01-30T02:04:30;1.50;88.40
11091;DHT22;5599;52.210;21.046;2024-01-30T02:06:59;1.40;19.10
11091;DHT22;5599;52.210;21.046;2024-01-30T02:09:28;1.40;61.90
11091;DHT22;5599;52.210;21.046;2024-01-30T02:11:57;1.40;92.20
11091;DHT22;5599;52.210;21.046;2024-01-30T02:14:27;1.40;94.80
11091;DHT22;5599;52.210;21.046;2024-01-30T02:16:57;1.40;48.40
11091;DHT22;5599;52.210;21.046;2024-01-30T02:19:26;1.40;92.10
11091;DHT22;5599;52.210;21.046;2024-01-30T02:21:57;1.30;14.20
11091;DHT22;5599;52.210;21.046;2024-01-30T02:24:26;1.40;96.20
11091;DHT22;5599;52.210;21.046;2024-01-30T02:26:54;1.30;92.10
11091;DHT22;5599;52.210;21.046;2024-01-30T02:29:23;1.30;42.40
11091;DHT22;5599;52.210;21.046;2024-01-30T02:31:52;1.20;99.90
11091;DHT22;5599;52.210;21.046;2024-01-30T02:34:21;1.30;99.90
11091;DHT22;5599;52.210;21.046;2024-01-30T02:36:50;1.30;99.90
11091;DHT22;5599;52.210;21.046;2024-01-30T02:39:20;1.20;99.90
11091;DHT22;5599;52.210;21.046;2024-01-30T02:41:49;1.20;99.90
11091;DHT22;5599;52.210;21.046;2024-01-30T02:44:18;1.20;99.90
11091;DHT22;5599;52.210;21.046;2024-01-30T02:46:47;1.20;99.90
11091;DHT22;5599;52.210;21.046;2024-01-30T02:49:16;1.20;99.90
11091;DHT22;5599;52.210;21.046;2024-01-30T02:51:45;1.20;99.90
11091;DHT22;5599;52.210;21.046;2024-01-30T02:54:13;1.30;99.90
11091;DHT22;5599;52.210;21.046;2024-01-30T02:56:44;1.30;99.90
11091;DHT22;5599;52.210;21.046;2024-01-30T02:59:12;1.30;99.90
11091;DHT22;5599;52.210;21.046;2024-01-30T03:01:45;1.30;99.90
11091;DHT22;5599;52.210;21.046;2024-01-30T03:04:14;1.20;99.90
11091;DHT22;5599;52.210;21.046;2024-01-30T03:06:45;1.20;99.90
11091;DHT22;5599;52.210;21.046;2024-01-30T03:09:16;1.20;99.90
11091;DHT22;5599;52.210;21.046;2024-01-30T03:11:47;1.20;99.90
11091;DHT22;5599;52.210;21.046;2024-01-30T03:14:16;1.20;99.90
11091;DHT22;5599;52.210;21.046;2024-01-30T03:16:44;1.20;99.90
11091;DHT22;5599;52.210;21.046;2024-01-30T03:19:13;1.20;99.90
11091;DHT22;5599;52.210;21.046;2024-01-30T03:21:42;1.20;99.90
11091;DHT22;5599;52.210;21.046;2024-01-30T03:24:11;1.20;99.90
11091;DHT22;5599;52.210;21.046;2024-01-30T03:26:40;1.20;99.90
11091;DHT22;5599;52.210;21.046;2024-01-30T03:29:10;1.20;99.90
11091;DHT22;5599;52.210;21.046;2024-01-30T03:31:39;1.10;99.90
11091;DHT22;5599;52.210;21.046;2024-01-30T03:34:08;1.10;99.90
11091;DHT22;5599;52.210;21.046;2024-01-30T03:36:37;1.10;99.90
11091;DHT22;5599;52.210;21.046;2024-01-30T03:39:06;1.10;99.90
11091;DHT22;5599;52.210;21.046;2024-01-30T03:41:35;1.10;99.90
11091;DHT22;5599;52.210;21.046;2024-01-30T03:44:04;1.10;99.90
11091;DHT22;5599;52.210;21.046;2024-01-30T03:46:34;1.00;99.90
11091;DHT22;5599;52.210;21.046;2024-01-30T03:49:03;1.10;99.90
11091;DHT22;5599;52.210;21.046;2024-01-30T03:51:32;1.00;99.90
11091;DHT22;5599;52.210;21.046;2024-01-30T03:54:01;1.10;99.90
11091;DHT22;5599;52.210;21.046;2024-01-30T03:56:29;1.10;99.90
11091;DHT22;5599;52.210;21.046;2024-01-30T03:58:58;1.10;99.90
11091;DHT22;5599;52.210;21.046;2024-01-30T04:01:28;1.00;99.90
11091;DHT22;5599;52.210;21.046;2024-01-30T04:03:58;1.00;99.90
11091;DHT22;5599;52.210;21.046;2024-01-30T04:06:27;1.00;99.90
11091;DHT22;5599;52.210;21.046;2024-01-30T04:08:56;1.10;99.90
11091;DHT22;5599;52.210;21.046;2024-01-30T04:11:25;1.10;99.90
11091;DHT22;5599;52.210;21.046;2024-01-30T04:13:53;1.00;99.90
11091;DHT22;5599;52.210;21.046;2024-01-30T04:16:22;1.10;99.90
11091;DHT22;5599;52.210;21.046;2024-01-30T04:18:52;1.10;99.90
11091;DHT22;5599;52.210;21.046;2024-01-30T04:21:22;1.10;99.90
11091;DHT22;5599;52.210;21.046;2024-01-30T04:23:53;1.00;99.90
11091;DHT22;5599;52.210;21.046;2024-01-30T04:26:22;1.00;99.90
11091;DHT22;5599;52.210;21.046;2024-01-30T04:28:51;1.10;99.90
11091;DHT22;5599;52.210;21.046;2024-01-30T04:31:19;1.10;99.90
11091;DHT22;5599;52.210;21.046;2024-01-30T04:33:48;1.10;99.90
11091;DHT22;5599;52.210;21.046;2024-01-30T04:36:17;1.10;99.90
11091;DHT22;5599;52.210;21.046;2024-01-30T04:38:47;1.00;99.90
11091;DHT22;5599;52.210;21.046;2024-01-30T04:41:16;1.00;99.90
11091;DHT22;5599;52.210;21.046;2024-01-30T04:43:45;1.00;99.90
11091;DHT22;5599;52.210;21.046;2024-01-30T04:46:14;0.90;99.90
11091;DHT22;5599;52.210;21.046;2024-01-30T04:48:43;1.00;99.90
11091;DHT22;5599;52.210;21.046;2024-01-30T04:51:12;1.00;99.90
11091;DHT22;5599;52.210;21.046;2024-01-30T04:53:41;1.10;99.90
11091;DHT22;5599;52.210;21.046;2024-01-30T04:56:11;1.00;99.90
11091;DHT22;5599;52.210;21.046;2024-01-30T04:58:40;1.00;99.90
11091;DHT22;5599;52.210;21.046;2024-01-30T05:01:09;1.00;99.90
11091;DHT22;5599;52.210;21.046;2024-01-30T05:03:38;1.10;99.90
11091;DHT22;5599;52.210;21.046;2024-01-30T05:06:07;1.00;99.90
11091;DHT22;5599;52.210;21.046;2024-01-30T05:08:36;1.00;99.90
11091;DHT22;5599;52.210;21.046;2024-01-30T05:11:05;1.00;99.90
11091;DHT22;5599;52.210;21.046;2024-01-30T05:13:36;1.00;99.90
11091;DHT22;5599;52.210;21.046;2024-01-30T05:16:05;1.00;99.90
11091;DHT22;5599;52.210;21.046;2024-01-30T05:18:34;0.90;99.90
11091;DHT22;5599;52.210;21.046;2024-01-30T05:21:03;0.90;99.90
11091;DHT22;5599;52.210;21.046;2024-01-30T05:23:32;1.00;99.90
11091;DHT22;5599;52.210;21.046;2024-01-30T05:26:01;0.90;99.90
11091;DHT22;5599;52.210;21.046;2024-01-30T05:28:30;0.90;99.90
11091;DHT22;5599;52.210;21.046;2024-01-30T05:31:00;0.90;99.90
11091;DHT22;5599;52.210;21.046;2024-01-30T05:33:29;0.90;99.90
11091;DHT22;5599;52.210;21.046;2024-01-30T05:35:58;0.90;99.90
11091;DHT22;5599;52.210;21.046;2024-01-30T05:38:27;0.90;99.90
11091;DHT22;5599;52.210;21.046;2024-01-30T05:40:55;1.00;99.90
11091;DHT22;5599;52.210;21.046;2024-01-30T05:43:25;0.90;99.90
11091;DHT22;5599;52.210;21.046;2024-01-30T05:45:54;0.90;99.90
11091;DHT22;5599;52.210;21.046;2024-01-30T05:48:24;0.90;99.90
11091;DHT22;5599;52.210;21.046;2024-01-30T05:50:53;1.00;99.90
11091;DHT22;5599;52.210;21.046;2024-01-30T05:53:22;1.00;96.60
11091;DHT22;5599;52.210;21.046;2024-01-30T05:55:51;0.90;79.00
11091;DHT22;5599;52.210;21.046;2024-01-30T05:58:20;0.90;49.70
11091;DHT22;5599;52.210;21.046;2024-01-30T06:00:49;1.00;99.90
11091;DHT22;5599;52.210;21.046;2024-01-30T06:03:18;1.00;99.90
11091;DHT22;5599;52.210;21.046;2024-01-30T06:05:48;0.90;80.60
11091;DHT22;5599;52.210;21.046;2024-01-30T06:08:17;0.90;99.90
11091;DHT22;5599;52.210;21.046;2024-01-30T06:10:46;0.90;22.70
11091;DHT22;5599;52.210;21.046;2024-01-30T06:13:15;1.00;99.90
11091;DHT22;5599;52.210;21.046;2024-01-30T06:15:44;1.00;99.90
11091;DHT22;5599;52.210;21.046;2024-01-30T06:18:13;1.00;1.00
11091;DHT22;5599;52.210;21.046;2024-01-30T06:20:42;1.00;1.00
11091;DHT22;5599;52.210;21.046;2024-01-30T06:23:12;1.00;1.00
11091;DHT22;5599;52.210;21.046;2024-01-30T06:25:41;1.10;1.00
11091;DHT22;5599;52.210;21.046;2024-01-30T06:28:10;1.10;1.00
11091;DHT22;5599;52.210;21.046;2024-01-30T06:30:39;1.00;1.00
11091;DHT22;5599;52.210;21.046;2024-01-30T06:33:08;1.10;1.00
11091;DHT22;5599;52.210;21.046;2024-01-30T06:35:37;1.10;1.00
11091;DHT22;5599;52.210;21.046;2024-01-30T06:38:12;1.10;1.00
11091;DHT22;5599;52.210;21.046;2024-01-30T06:40:43;1.10;1.00
11091;DHT22;5599;52.210;21.046;2024-01-30T06:43:12;1.20;1.00
11091;DHT22;5599;52.210;21.046;2024-01-30T06:45:40;1.20;1.00
11091;DHT22;5599;52.210;21.046;2024-01-30T06:48:10;1.30;1.00
11091;DHT22;5599;52.210;21.046;2024-01-30T06:50:39;1.30;1.00
11091;DHT22;5599;52.210;21.046;2024-01-30T06:53:08;1.50;1.00
11091;DHT22;5599;52.210;21.046;2024-01-30T06:55:38;1.60;99.90
11091;DHT22;5599;52.210;21.046;2024-01-30T06:58:07;1.60;15.30
11091;DHT22;5599;52.210;21.046;2024-01-30T07:00:36;1.60;1.00
11091;DHT22;5599;52.210;21.046;2024-01-30T07:03:05;1.70;1.00
11091;DHT22;5599;52.210;21.046;2024-01-30T07:05:34;1.80;99.90
11091;DHT22;5599;52.210;21.046;2024-01-30T07:08:03;1.90;1.00
11091;DHT22;5599;52.210;21.046;2024-01-30T07:10:32;1.90;1.00
11091;DHT22;5599;52.210;21.046;2024-01-30T07:13:03;1.90;99.90
11091;DHT22;5599;52.210;21.046;2024-01-30T07:15:33;2.00;99.90
11091;DHT22;5599;52.210;21.046;2024-01-30T07:18:02;2.10;99.90
11091;DHT22;5599;52.210;21.046;2024-01-30T07:20:32;2.20;1.00
11091;DHT22;5599;52.210;21.046;2024-01-30T07:23:01;2.30;1.00
11091;DHT22;5599;52.210;21.046;2024-01-30T07:25:30;2.30;99.90
11091;DHT22;5599;52.210;21.046;2024-01-30T07:27:59;2.40;99.90
11091;DHT22;5599;52.210;21.046;2024-01-30T07:30:30;2.50;1.00
11091;DHT22;5599;52.210;21.046;2024-01-30T07:32:59;2.60;1.00
11091;DHT22;5599;52.210;21.046;2024-01-30T07:35:28;2.90;1.00
11091;DHT22;5599;52.210;21.046;2024-01-30T07:37:57;3.10;2.10
11091;DHT22;5599;52.210;21.046;2024-01-30T07:40:26;3.40;1.00
11091;DHT22;5599;52.210;21.046;2024-01-30T07:42:55;3.80;99.90
11091;DHT22;5599;52.210;21.046;2024-01-30T07:45:24;4.30;28.50
11091;DHT22;5599;52.210;21.046;2024-01-30T07:47:56;4.70;1.00
11091;DHT22;5599;52.210;21.046;2024-01-30T07:50:25;5.10;99.90
11091;DHT22;5599;52.210;21.046;2024-01-30T07:52:55;5.60;54.80
11091;DHT22;5599;52.210;21.046;2024-01-30T07:55:24;5.90;1.00
11091;DHT22;5599;52.210;21.046;2024-01-30T07:57:55;6.10;1.00
11091;DHT22;5599;52.210;21.046;2024-01-30T08:00:24;6.50;1.00
11091;DHT22;5599;52.210;21.046;2024-01-30T08:02:54;7.00;1.00
11091;DHT22;5599;52.210;21.046;2024-01-30T08:05:24;7.40;99.90
11091;DHT22;5599;52.210;21.046;2024-01-30T08:07:53;7.80;99.90
11091;DHT22;5599;52.210;21.046;2024-01-30T08:10:22;8.10;99.90
11091;DHT22;5599;52.210;21.046;2024-01-30T08:12:51;8.30;99.40
11091;DHT22;5599;52.210;21.046;2024-01-30T08:15:20;8.50;99.90
11091;DHT22;5599;52.210;21.046;2024-01-30T08:17:49;8.90;99.90
11091;DHT22;5599;52.210;21.046;2024-01-30T08:20:24;9.10;41.60
11091;DHT22;5599;52.210;21.046;2024-01-30T08:22:54;9.40;12.40
11091;DHT22;5599;52.210;21.046;2024-01-30T08:25:22;9.70;1.00
11091;DHT22;5599;52.210;21.046;2024-01-30T08:27:51;9.80;1.00
11091;DHT22;5599;52.210;21.046;2024-01-30T08:30:20;10.10;1.00
11091;DHT22;5599;52.210;21.046;2024-01-30T08:32:49;10.30;1.00
11091;DHT22;5599;52.210;21.046;2024-01-30T08:35:19;10.50;1.00
11091;DHT22;5599;52.210;21.046;2024-01-30T08:37:50;10.70;1.00
11091;DHT22;5599;52.210;21.046;2024-01-30T08:40:19;10.80;1.00
11091;DHT22;5599;52.210;21.046;2024-01-30T08:42:48;10.90;1.00
11091;DHT22;5599;52.210;21.046;2024-01-30T08:45:17;11.00;1.00
11091;DHT22;5599;52.210;21.046;2024-01-30T08:47:46;11.00;1.00
11091;DHT22;5599;52.210;21.046;2024-01-30T08:50:16;11.00;1.00
11091;DHT22;5599;52.210;21.046;2024-01-30T08:52:51;11.10;1.00
11091;DHT22;5599;52.210;21.046;2024-01-30T08:55:19;11.10;39.10
11091;DHT22;5599;52.210;21.046;2024-01-30T08:57:49;11.30;1.00
11091;DHT22;5599;52.210;21.046;2024-01-30T09:00:19;11.60;1.00
11091;DHT22;5599;52.210;21.046;2024-01-30T09:02:48;11.60;1.00
11091;DHT22;5599;52.210;21.046;2024-01-30T09:05:17;11.80;1.00
11091;DHT22;5599;52.210;21.046;2024-01-30T09:07:46;11.90;1.00
11091;DHT22;5599;52.210;21.046;2024-01-30T09:10:17;11.90;62.00
11091;DHT22;5599;52.210;21.046;2024-01-30T09:12:48;12.00;1.00
11091;DHT22;5599;52.210;21.046;2024-01-30T09:15:18;12.00;1.00
11091;DHT22;5599;52.210;21.046;2024-01-30T09:17:51;12.10;1.00
11091;DHT22;5599;52.210;21.046;2024-01-30T09:20:19;12.00;1.00
11091;DHT22;5599;52.210;21.046;2024-01-30T09:22:49;11.90;1.00
11091;DHT22;5599;52.210;21.046;2024-01-30T09:25:20;11.80;1.00
11091;DHT22;5599;52.210;21.046;2024-01-30T09:27:49;11.80;1.00
11091;DHT22;5599;52.210;21.046;2024-01-30T09:30:18;11.90;1.00
11091;DHT22;5599;52.210;21.046;2024-01-30T09:32:47;11.70;1.00
11091;DHT22;5599;52.210;21.046;2024-01-30T09:35:16;11.60;1.00
11091;DHT22;5599;52.210;21.046;2024-01-30T09:37:45;11.60;1.00
11091;DHT22;5599;52.210;21.046;2024-01-30T09:40:14;11.70;1.00
11091;DHT22;5599;52.210;21.046;2024-01-30T09:42:50;11.80;1.00
11091;DHT22;5599;52.210;21.046;2024-01-30T09:45:21;11.70;1.00
11091;DHT22;5599;52.210;21.046;2024-01-30T09:47:52;11.70;1.00
11091;DHT22;5599;52.210;21.046;2024-01-30T09:50:21;11.70;1.00
11091;DHT22;5599;52.210;21.046;2024-01-30T09:52:51;11.70;1.00
11091;DHT22;5599;52.210;21.046;2024-01-30T09:55:22;11.70;1.00
11091;DHT22;5599;52.210;21.046;2024-01-30T09:57:52;11.60;1.00
11091;DHT22;5599;52.210;21.046;2024-01-30T10:00:21;11.50;1.00
11091;DHT22;5599;52.210;21.046;2024-01-30T10:02:55;11.40;1.00
11091;DHT22;5599;52.210;21.046;2024-01-30T10:05:27;11.40;1.00
11091;DHT22;5599;52.210;21.046;2024-01-30T10:07:57;11.30;1.00
11091;DHT22;5599;52.210;21.046;2024-01-30T10:10:26;11.30;1.00
11091;DHT22;5599;52.210;21.046;2024-01-30T10:12:57;11.30;1.00
11091;DHT22;5599;52.210;21.046;2024-01-30T10:15:29;11.10;1.00
11091;DHT22;5599;52.210;21.046;2024-01-30T10:17:58;11.10;99.90
11091;DHT22;5599;52.210;21.046;2024-01-30T10:20:27;11.10;1.00
11091;DHT22;5599;52.210;21.046;2024-01-30T10:22:56;11.10;1.00
11091;DHT22;5599;52.210;21.046;2024-01-30T10:25:25;10.90;21.80
11091;DHT22;5599;52.210;21.046;2024-01-30T10:27:56;10.70;1.00
11091;DHT22;5599;52.210;21.046;2024-01-30T10:30:26;10.70;1.00
11091;DHT22;5599;52.210;21.046;2024-01-30T10:32:55;10.70;1.00
11091;DHT22;5599;52.210;21.046;2024-01-30T10:35:24;10.70;1.00
11091;DHT22;5599;52.210;21.046;2024-01-30T10:37:56;10.70;1.00
11091;DHT22;5599;52.210;21.046;2024-01-30T10:40:28;10.60;1.00
11091;DHT22;5599;52.210;21.046;2024-01-30T10:43:02;10.60;1.00
11091;DHT22;5599;52.210;21.046;2024-01-30T10:45:32;10.70;1.00
11091;DHT22;5599;52.210;21.046;2024-01-30T10:48:03;10.60;1.00
11091;DHT22;5599;52.210;21.046;2024-01-30T10:50:35;10.50;1.00
11091;DHT22;5599;52.210;21.046;2024-01-30T10:53:18;10.30;1.00
11091;DHT22;5599;52.210;21.046;2024-01-30T10:55:48;10.30;1.00
11091;DHT22;5599;52.210;21.046;2024-01-30T10:58:20;10.30;1.00
11091;DHT22;5599;52.210;21.046;2024-01-30T11:00:50;10.30;1.00
11091;DHT22;5599;52.210;21.046;2024-01-30T11:03:20;10.30;1.00
11091;DHT22;5599;52.210;21.046;2024-01-30T11:05:50;10.30;1.00
11091;DHT22;5599;52.210;21.046;2024-01-30T11:08:25;10.40;1.00
11091;DHT22;5599;52.210;21.046;2024-01-30T11:10:56;10.40;1.00
11091;DHT22;5599;52.210;21.046;2024-01-30T11:13:31;10.50;1.00
11091;DHT22;5599;52.210;21.046;2024-01-30T11:16:01;10.60;26.30
11091;DHT22;5599;52.210;21.046;2024-01-30T11:18:32;10.50;31.00
11091;DHT22;5599;52.210;21.046;2024-01-30T11:21:01;10.50;1.00
11091;DHT22;5599;52.210;21.046;2024-01-30T11:23:31;10.50;1.00
11091;DHT22;5599;52.210;21.046;2024-01-30T11:26:01;10.40;1.00
11091;DHT22;5599;52.210;21.046;2024-01-30T11:28:34;10.40;19.10
11091;DHT22;5599;52.210;21.046;2024-01-30T11:31:03;10.30;1.00
11091;DHT22;5599;52.210;21.046;2024-01-30T11:33:33;10.30;1.00
11091;DHT22;5599;52.210;21.046;2024-01-30T11:36:03;10.30;1.00
11091;DHT22;5599;52.210;21.046;2024-01-30T11:38:34;10.20;9.50
11091;DHT22;5599;52.210;21.046;2024-01-30T11:41:03;10.10;1.00
11091;DHT22;5599;52.210;21.046;2024-01-30T11:43:34;10.10;1.00
11091;DHT22;5599;52.210;21.046;2024-01-30T11:46:03;10.10;93.10
11091;DHT22;5599;52.210;21.046;2024-01-30T11:48:34;10.20;1.00
11091;DHT22;5599;52.210;21.046;2024-01-30T11:51:04;10.10;1.00
11091;DHT22;5599;52.210;21.046;2024-01-30T11:53:33;10.00;1.00
11091;DHT22;5599;52.210;21.046;2024-01-30T11:56:02;10.00;29.10
11091;DHT22;5599;52.210;21.046;2024-01-30T11:58:31;10.10;1.00
11091;DHT22;5599;52.210;21.046;2024-01-30T12:01:01;10.20;1.00
11091;DHT22;5599;52.210;21.046;2024-01-30T12:03:30;10.20;1.00
11091;DHT22;5599;52.210;21.046;2024-01-30T12:06:00;10.20;1.00
11091;DHT22;5599;52.210;21.046;2024-01-30T12:08:29;10.10;1.00
11091;DHT22;5599;52.210;21.046;2024-01-30T12:10:58;10.10;1.00
11091;DHT22;5599;52.210;21.046;2024-01-30T12:13:29;10.20;1.00
11091;DHT22;5599;52.210;21.046;2024-01-30T12:16:01;10.10;1.00
11091;DHT22;5599;52.210;21.046;2024-01-30T12:18:30;10.00;1.00
11091;DHT22;5599;52.210;21.046;2024-01-30T12:20:59;9.90;1.00
11091;DHT22;5599;52.210;21.046;2024-01-30T12:23:29;10.00;1.00
11091;DHT22;5599;52.210;21.046;2024-01-30T12:25:58;10.00;1.00
11091;DHT22;5599;52.210;21.046;2024-01-30T12:28:27;9.90;1.00
11091;DHT22;5599;52.210;21.046;2024-01-30T12:30:56;9.90;1.00
11091;DHT22;5599;52.210;21.046;2024-01-30T12:33:28;10.00;1.00
11091;DHT22;5599;52.210;21.046;2024-01-30T12:35:57;10.00;1.00
11091;DHT22;5599;52.210;21.046;2024-01-30T12:38:30;10.00;1.00
11091;DHT22;5599;52.210;21.046;2024-01-30T12:40:59;10.00;1.00
11091;DHT22;5599;52.210;21.046;2024-01-30T12:43:29;10.00;1.00
11091;DHT22;5599;52.210;21.046;2024-01-30T12:46:05;10.00;1.00
11091;DHT22;5599;52.210;21.046;2024-01-30T12:48:36;10.10;1.00
11091;DHT22;5599;52.210;21.046;2024-01-30T12:51:05;10.20;1.00
11091;DHT22;5599;52.210;21.046;2024-01-30T12:53:34;10.20;1.00
11091;DHT22;5599;52.210;21.046;2024-01-30T12:56:03;10.10;1.00
11091;DHT22;5599;52.210;21.046;2024-01-30T12:58:32;10.10;1.00
11091;DHT22;5599;52.210;21.046;2024-01-30T13:01:01;10.00;1.00
11091;DHT22;5599;52.210;21.046;2024-01-30T13:03:30;10.00;1.00
11091;DHT22;5599;52.210;21.046;2024-01-30T13:06:01;9.90;1.00
11091;DHT22;5599;52.210;21.046;2024-01-30T13:08:30;9.80;1.00
11091;DHT22;5599;52.210;21.046;2024-01-30T13:10:59;9.70;1.00
11091;DHT22;5599;52.210;21.046;2024-01-30T13:13:28;9.70;1.00
11091;DHT22;5599;52.210;21.046;2024-01-30T13:15:57;9.80;1.00
11091;DHT22;5599;52.210;21.046;2024-01-30T13:18:26;9.90;1.00
11091;DHT22;5599;52.210;21.046;2024-01-30T13:20:55;9.90;1.00
11091;DHT22;5599;52.210;21.046;2024-01-30T13:23:26;10.00;1.00
11091;DHT22;5599;52.210;21.046;2024-01-30T13:25:55;10.00;1.00
11091;DHT22;5599;52.210;21.046;2024-01-30T13:28:26;10.00;1.00
11091;DHT22;5599;52.210;21.046;2024-01-30T13:30:55;9.90;1.00
11091;DHT22;5599;52.210;21.046;2024-01-30T13:33:24;10.00;1.00
11091;DHT22;5599;52.210;21.046;2024-01-30T13:35:53;10.10;1.00
11091;DHT22;5599;52.210;21.046;2024-01-30T13:38:23;10.10;1.00
11091;DHT22;5599;52.210;21.046;2024-01-30T13:40:53;10.20;1.00
11091;DHT22;5599;52.210;21.046;2024-01-30T13:43:22;10.20;22.70
11091;DHT22;5599;52.210;21.046;2024-01-30T13:45:51;10.10;1.00
11091;DHT22;5599;52.210;21.046;2024-01-30T13:48:20;10.10;1.00
11091;DHT22;5599;52.210;21.046;2024-01-30T13:50:49;10.20;1.00
11091;DHT22;5599;52.210;21.046;2024-01-30T13:53:19;10.10;1.00
11091;DHT22;5599;52.210;21.046;2024-01-30T13:55:48;10.10;1.00
11091;DHT22;5599;52.210;21.046;2024-01-30T13:58:18;10.00;23.80
11091;DHT22;5599;52.210;21.046;2024-01-30T14:00:47;10.00;99.90
11091;DHT22;5599;52.210;21.046;2024-01-30T14:03:17;10.00;1.00
11091;DHT22;5599;52.210;21.046;2024-01-30T14:05:45;9.90;1.00
11091;DHT22;5599;52.210;21.046;2024-01-30T14:08:15;9.80;1.00
11091;DHT22;5599;52.210;21.046;2024-01-30T14:10:44;9.80;1.00
11091;DHT22;5599;52.210;21.046;2024-01-30T14:13:13;9.80;1.00
11091;DHT22;5599;52.210;21.046;2024-01-30T14:15:44;9.80;1.00
11091;DHT22;5599;52.210;21.046;2024-01-30T14:18:13;9.80;1.00
11091;DHT22;5599;52.210;21.046;2024-01-30T14:20:42;9.80;1.00
11091;DHT22;5599;52.210;21.046;2024-01-30T14:23:12;9.70;1.00
11091;DHT22;5599;52.210;21.046;2024-01-30T14:25:41;9.70;1.00
11091;DHT22;5599;52.210;21.046;2024-01-30T14:28:10;9.60;1.00
11091;DHT22;5599;52.210;21.046;2024-01-30T14:30:39;9.60;1.00
11091;DHT22;5599;52.210;21.046;2024-01-30T14:33:09;9.70;1.00
11091;DHT22;5599;52.210;21.046;2024-01-30T14:35:38;9.70;1.00
11091;DHT22;5599;52.210;21.046;2024-01-30T14:38:07;9.70;1.00
11091;DHT22;5599;52.210;21.046;2024-01-30T14:40:38;9.60;1.00
11091;DHT22;5599;52.210;21.046;2024-01-30T14:43:07;9.60;1.00
11091;DHT22;5599;52.210;21.046;2024-01-30T14:45:36;9.50;1.00
11091;DHT22;5599;52.210;21.046;2024-01-30T14:48:06;9.40;1.00
11091;DHT22;5599;52.210;21.046;2024-01-30T14:50:37;9.30;1.00
11091;DHT22;5599;52.210;21.046;2024-01-30T14:53:06;9.10;1.00
11091;DHT22;5599;52.210;21.046;2024-01-30T14:55:35;9.10;1.00
11091;DHT22;5599;52.210;21.046;2024-01-30T14:58:06;9.10;1.00
11091;DHT22;5599;52.210;21.046;2024-01-30T15:00:35;9.10;1.00
11091;DHT22;5599;52.210;21.046;2024-01-30T15:03:06;9.00;1.00
11091;DHT22;5599;52.210;21.046;2024-01-30T15:05:35;9.00;1.00
11091;DHT22;5599;52.210;21.046;2024-01-30T15:08:06;8.90;1.00
11091;DHT22;5599;52.210;21.046;2024-01-30T15:10:35;8.90;1.00
11091;DHT22;5599;52.210;21.046;2024-01-30T15:13:04;8.80;1.00
11091;DHT22;5599;52.210;21.046;2024-01-30T15:15:33;8.70;1.00
11091;DHT22;5599;52.210;21.046;2024-01-30T15:18:03;8.60;1.00
11091;DHT22;5599;52.210;21.046;2024-01-30T15:20:32;8.40;1.00
11091;DHT22;5599;52.210;21.046;2024-01-30T15:23:01;8.50;1.00
11091;DHT22;5599;52.210;21.046;2024-01-30T15:25:32;8.40;1.00
11091;DHT22;5599;52.210;21.046;2024-01-30T15:28:01;8.40;1.00
11091;DHT22;5599;52.210;21.046;2024-01-30T15:30:30;8.20;1.00
11091;DHT22;5599;52.210;21.046;2024-01-30T15:32:59;8.20;1.00
11091;DHT22;5599;52.210;21.046;2024-01-30T15:35:29;8.10;1.00
11091;DHT22;5599;52.210;21.046;2024-01-30T15:37:58;8.10;1.00
11091;DHT22;5599;52.210;21.046;2024-01-30T15:40:53;8.00;1.00
11091;DHT22;5599;52.210;21.046;2024-01-30T15:43:22;8.00;1.00
11091;DHT22;5599;52.210;21.046;2024-01-30T15:45:51;7.90;1.00
11091;DHT22;5599;52.210;21.046;2024-01-30T15:48:46;7.90;1.00
11091;DHT22;5599;52.210;21.046;2024-01-30T15:51:41;7.90;1.00
11091;DHT22;5599;52.210;21.046;2024-01-30T15:54:35;7.80;1.00
11091;DHT22;5599;52.210;21.046;2024-01-30T15:57:30;7.80;1.00
11091;DHT22;5599;52.210;21.046;2024-01-30T16:00:24;7.70;99.90
11091;DHT22;5599;52.210;21.046;2024-01-30T16:03:19;7.70;99.90
11091;DHT22;5599;52.210;21.046;2024-01-30T16:06:14;7.60;1.00